Time;durP1;ratioP1;P1;durP2;ratioP2;P2;SDS_P1;SDS_P2;PMS_P1;PMS_P2;Temp;Humidity;BMP_temperature;BMP_pressure;BME280_temperature;BME280_humidity;BME280_pressure;Samples;Min_cycle;Max_cycle;Signal;HPM_P1;HPM_P2
2022/08/01 00:01:55;;;;;;;2.25;0.50;;;14.90;99.90;;;;;;5074180;28;20488;-71
2022/08/01 00:04:22;;;;;;;2.45;0.40;;;15.20;99.90;;;;;;5074274;28;20031;-70
2022/08/01 00:06:50;;;;;;;1.42;0.40;;;15.40;99.90;;;;;;5073979;28;20024;-71
2022/08/01 00:09:17;;;;;;;2.50;0.30;;;15.60;99.90;;;;;;5072847;28;20024;-70
2022/08/01 00:11:45;;;;;;;1.27;0.30;;;15.70;99.90;;;;;;5073750;28;20048;-70
2022/08/01 00:14:12;;;;;;;1.10;0.38;;;15.90;99.90;;;;;;5073915;28;20029;-70
2022/08/01 00:16:39;;;;;;;2.45;0.30;;;15.90;99.90;;;;;;5073852;28;20093;-71
2022/08/01 00:19:07;;;;;;;3.45;0.70;;;16.00;99.90;;;;;;5073827;28;20020;-71
2022/08/01 00:21:34;;;;;;;2.25;0.40;;;16.20;99.90;;;;;;5072336;28;20028;-70
2022/08/01 00:24:01;;;;;;;0.70;0.43;;;16.20;99.90;;;;;;5073522;28;20016;-70
2022/08/01 00:26:29;;;;;;;2.03;0.32;;;16.30;99.90;;;;;;5073834;28;20031;-71
2022/08/01 00:28:56;;;;;;;0.73;0.30;;;16.40;99.90;;;;;;5074055;28;20029;-73
2022/08/01 00:31:26;;;;;;;1.83;0.57;;;16.50;99.90;;;;;;5073941;28;20028;-72
2022/08/01 00:33:53;;;;;;;2.45;0.55;;;16.60;99.90;;;;;;5073602;28;20032;-69
2022/08/01 00:36:21;;;;;;;1.75;0.45;;;16.60;99.90;;;;;;5072635;28;20021;-70
2022/08/01 00:38:51;;;;;;;2.40;0.73;;;16.70;99.90;;;;;;5072675;28;20024;-72
2022/08/01 00:41:18;;;;;;;0.57;0.30;;;16.90;99.90;;;;;;5072040;28;20028;-71
2022/08/01 00:43:46;;;;;;;1.48;0.50;;;16.90;99.90;;;;;;5073132;28;20028;-71
2022/08/01 00:46:13;;;;;;;0.77;0.30;;;17.10;99.90;;;;;;5071915;28;20534;-72
2022/08/01 00:48:41;;;;;;;2.42;0.43;;;17.20;99.90;;;;;;5072247;28;20128;-72
2022/08/01 00:51:09;;;;;;;1.83;0.50;;;17.20;99.90;;;;;;5073284;28;20013;-71
2022/08/01 00:53:36;;;;;;;1.13;0.30;;;17.40;99.90;;;;;;5073079;28;20045;-71
2022/08/01 00:56:04;;;;;;;0.60;0.20;;;17.50;99.90;;;;;;5073162;28;20476;-71
2022/08/01 00:58:32;;;;;;;1.48;0.28;;;17.50;99.90;;;;;;5073174;28;20016;-69
2022/08/01 01:01:00;;;;;;;0.50;0.20;;;17.70;99.90;;;;;;5071748;28;20017;-70
2022/08/01 01:03:28;;;;;;;0.43;0.30;;;17.80;99.90;;;;;;5073029;28;20050;-69
2022/08/01 01:06:33;;;;;;;0.75;0.52;;;17.90;99.90;;;;;;5072810;28;20385;-69
2022/08/01 01:09:22;;;;;;;0.32;0.20;;;17.90;99.90;;;;;;5073240;28;20048;-68
2022/08/01 01:12:06;;;;;;;0.90;0.40;;;18.00;99.90;;;;;;5043456;28;20040;-70
2022/08/01 01:15:01;;;;;;;1.15;0.30;;;18.10;99.90;;;;;;5073397;28;20033;-70
2022/08/01 01:17:36;;;;;;;1.23;0.40;;;18.10;99.90;;;;;;5072785;28;20017;-69
2022/08/01 01:20:06;;;;;;;0.50;0.30;;;18.00;99.90;;;;;;5072934;28;20035;-69
2022/08/01 01:22:38;;;;;;;0.88;0.30;;;18.00;99.90;;;;;;5072812;28;20051;-69
2022/08/01 01:25:45;;;;;;;0.95;0.35;;;18.00;99.90;;;;;;5073538;28;20032;-69
2022/08/01 01:28:30;;;;;;;0.68;0.30;;;18.10;99.90;;;;;;5071689;28;20396;-69
2022/08/01 01:30:59;;;;;;;2.92;0.70;;;18.20;99.90;;;;;;5071457;28;20031;-69
2022/08/01 01:33:28;;;;;;;0.47;0.20;;;18.30;99.90;;;;;;5072944;28;20034;-69
2022/08/01 01:36:01;;;;;;;2.58;0.20;;;18.30;99.90;;;;;;5072598;28;20036;-68
2022/08/01 01:38:32;;;;;;;1.70;0.30;;;18.20;99.90;;;;;;5071387;28;20025;-69
2022/08/01 01:41:02;;;;;;;1.02;0.40;;;18.30;99.90;;;;;;5071418;28;20020;-68
2022/08/01 01:43:31;;;;;;;1.50;0.67;;;18.40;99.90;;;;;;5071399;28;20191;-68
2022/08/01 01:45:59;;;;;;;0.95;0.20;;;18.50;99.90;;;;;;5073015;28;20028;-69
2022/08/01 01:48:28;;;;;;;0.50;0.50;;;18.50;99.90;;;;;;5071559;28;20039;-69
2022/08/01 01:50:56;;;;;;;1.10;0.38;;;18.60;99.90;;;;;;5071297;28;20561;-69
2022/08/01 01:53:27;;;;;;;0.82;0.30;;;18.80;99.90;;;;;;5072476;28;20109;-69
2022/08/01 01:55:57;;;;;;;0.40;0.30;;;18.90;99.90;;;;;;5073112;28;20411;-69
2022/08/01 01:58:24;;;;;;;;;;;19.10;99.90;;;;;;5071750;28;20028;-69
2022/08/01 02:00:55;;;;;;;1.20;0.50;;;19.20;99.90;;;;;;5072509;28;19912;-69
2022/08/01 02:03:22;;;;;;;;;;;19.10;99.90;;;;;;5071969;28;20024;-69
2022/08/01 02:05:53;;;;;;;1.08;0.40;;;19.00;99.90;;;;;;5071186;28;19904;-69
2022/08/01 02:08:23;;;;;;;0.88;0.38;;;18.80;99.90;;;;;;5072474;28;20037;-69
2022/08/01 02:13:41;;;;;;;0.52;0.40;;;18.30;99.90;;;;;;5072643;28;20061;-68
2022/08/01 02:16:13;;;;;;;0.60;0.43;;;18.20;99.90;;;;;;5071054;28;20056;-71
2022/08/01 02:18:42;;;;;;;2.58;0.73;;;18.00;99.90;;;;;;5072820;28;20431;-68
2022/08/01 02:21:12;;;;;;;1.10;0.35;;;18.00;99.90;;;;;;5072272;28;20104;-68
2022/08/01 02:23:40;;;;;;;0.85;0.40;;;17.90;99.90;;;;;;5072305;28;20025;-68
2022/08/01 02:26:13;;;;;;;1.00;0.40;;;17.90;99.90;;;;;;5072297;28;20035;-68
2022/08/01 02:28:57;;;;;;;1.10;0.38;;;17.80;99.90;;;;;;5070888;28;20130;-67
2022/08/01 02:31:25;;;;;;;0.75;0.57;;;17.80;99.90;;;;;;5075827;28;20099;-68
2022/08/01 02:34:04;;;;;;;1.15;0.60;;;17.70;99.90;;;;;;5075623;28;20025;-68
2022/08/01 02:36:37;;;;;;;1.25;0.60;;;17.70;99.90;;;;;;5074550;28;20046;-68
2022/08/01 02:39:11;;;;;;;2.25;0.50;;;17.60;99.90;;;;;;5075608;28;20048;-68
2022/08/01 02:41:46;;;;;;;1.48;0.50;;;17.60;99.90;;;;;;5074393;28;20021;-68
2022/08/01 02:44:28;;;;;;;2.00;0.55;;;17.50;99.90;;;;;;5074212;28;20033;-70
2022/08/01 02:47:03;;;;;;;1.45;0.70;;;17.40;99.90;;;;;;5075616;28;20078;-68
2022/08/01 02:49:42;;;;;;;0.45;0.40;;;17.40;99.90;;;;;;5074288;28;20032;-68
2022/08/01 02:52:13;;;;;;;2.33;0.60;;;17.40;99.90;;;;;;5075201;28;20493;-68
2022/08/01 02:54:42;;;;;;;1.55;0.45;;;17.30;99.90;;;;;;5075549;28;20496;-69
2022/08/01 02:57:10;;;;;;;1.08;0.60;;;17.20;99.90;;;;;;5074017;28;20016;-70
2022/08/01 02:59:39;;;;;;;1.55;0.52;;;17.30;99.90;;;;;;5073864;28;20365;-69
2022/08/01 03:02:08;;;;;;;1.25;0.73;;;17.70;99.90;;;;;;5073880;28;20016;-71
2022/08/01 03:04:39;;;;;;;1.30;0.50;;;18.20;99.90;;;;;;5073878;28;20036;-70
2022/08/01 03:07:09;;;;;;;1.13;0.45;;;18.60;99.90;;;;;;5073899;28;20021;-70
2022/08/01 03:09:43;;;;;;;0.93;0.50;;;18.90;99.90;;;;;;5075069;28;20029;-71
2022/08/01 03:12:18;;;;;;;1.65;0.93;;;19.20;99.90;;;;;;5073644;28;20025;-70
2022/08/01 03:14:47;;;;;;;1.63;0.50;;;19.40;99.90;;;;;;5073528;28;20036;-70
2022/08/01 03:17:17;;;;;;;2.92;0.60;;;19.40;99.90;;;;;;5074825;28;20074;-70
2022/08/01 03:19:46;;;;;;;0.63;0.40;;;19.50;99.90;;;;;;5073467;28;20020;-70
2022/08/01 03:22:15;;;;;;;1.48;0.70;;;19.50;99.90;;;;;;5075308;28;20027;-70
2022/08/01 03:24:46;;;;;;;1.05;0.40;;;19.10;99.90;;;;;;5074729;28;20029;-70
2022/08/01 03:27:14;;;;;;;;;;;19.20;99.90;;;;;;5075290;28;20035;-70
2022/08/01 03:29:44;;;;;;;1.58;0.57;;;19.50;99.90;;;;;;5074685;28;19904;-71
2022/08/01 03:32:13;;;;;;;1.38;0.60;;;19.80;99.90;;;;;;5074639;28;20551;-69
2022/08/01 03:34:40;;;;;;;1.40;0.40;;;20.00;98.20;;;;;;5073224;28;20467;-70
2022/08/01 03:37:17;;;;;;;2.35;0.50;;;20.00;97.70;;;;;;5073319;28;20020;-69
2022/08/01 03:39:49;;;;;;;2.15;0.40;;;20.00;98.10;;;;;;5073279;28;20036;-69
2022/08/01 03:42:32;;;;;;;2.03;0.52;;;20.20;97.30;;;;;;5074145;28;20066;-69
2022/08/01 03:45:12;;;;;;;1.02;0.30;;;20.30;96.50;;;;;;5074277;28;20074;-70
2022/08/01 03:47:44;;;;;;;1.00;0.38;;;20.10;95.00;;;;;;5073138;28;20494;-70
2022/08/01 03:50:14;;;;;;;4.03;0.70;;;20.10;94.80;;;;;;5074371;28;20541;-69
2022/08/01 03:52:45;;;;;;;1.53;0.30;;;19.80;94.00;;;;;;5072807;28;20048;-69
2022/08/01 03:55:14;;;;;;;1.13;0.40;;;19.70;94.70;;;;;;5074233;28;20370;-68
2022/08/01 03:57:42;;;;;;;2.03;0.90;;;19.80;94.70;;;;;;5073079;28;20021;-68
2022/08/01 04:00:11;;;;;;;3.78;0.40;;;20.00;94.10;;;;;;5073986;28;20020;-69
2022/08/01 04:02:39;;;;;;;0.30;0.20;;;20.00;92.90;;;;;;5074127;28;20020;-69
2022/08/01 04:05:07;;;;;;;4.72;0.45;;;20.00;92.60;;;;;;5072740;28;20032;-68
2022/08/01 04:07:42;;;;;;;1.90;0.30;;;19.90;93.20;;;;;;5072819;28;20024;-70
2022/08/01 04:10:10;;;;;;;0.65;0.20;;;19.80;92.60;;;;;;5072793;28;20056;-70
2022/08/01 04:12:37;;;;;;;1.02;0.40;;;19.90;91.80;;;;;;5074100;28;20029;-69
2022/08/01 04:15:05;;;;;;;0.40;0.20;;;19.90;91.70;;;;;;5073922;28;20028;-68
2022/08/01 04:17:33;;;;;;;1.77;0.30;;;19.90;91.50;;;;;;5074022;28;20078;-68
2022/08/01 04:20:00;;;;;;;1.48;0.30;;;19.90;90.90;;;;;;5074111;28;20024;-69
2022/08/01 04:22:27;;;;;;;1.40;0.43;;;19.90;91.10;;;;;;5072396;28;20029;-70
2022/08/01 04:24:58;;;;;;;2.30;0.40;;;20.00;91.30;;;;;;5073831;28;20075;-68
2022/08/01 04:27:30;;;;;;;;;;;20.00;91.10;;;;;;5074291;28;20495;-68
2022/08/01 04:29:59;;;;;;;1.33;0.35;;;20.10;91.20;;;;;;5073891;28;19905;-70
2022/08/01 04:32:30;;;;;;;0.70;0.15;;;20.00;90.30;;;;;;5072200;28;20025;-69
2022/08/01 04:35:00;;;;;;;1.08;0.40;;;20.00;90.80;;;;;;5072122;28;20027;-70
2022/08/01 04:37:29;;;;;;;0.75;0.20;;;20.00;89.70;;;;;;5073675;28;20036;-70
2022/08/01 04:39:58;;;;;;;1.38;0.20;;;19.80;88.20;;;;;;5073366;28;20047;-71
2022/08/01 04:42:25;;;;;;;1.63;0.40;;;19.80;88.90;;;;;;5071854;28;20435;-70
2022/08/01 04:44:53;;;;;;;1.55;0.25;;;19.80;91.40;;;;;;5073404;28;20020;-71
2022/08/01 04:47:20;;;;;;;1.27;0.30;;;19.70;88.40;;;;;;5073319;28;20073;-70
2022/08/01 04:49:48;;;;;;;0.63;0.20;;;19.70;87.80;;;;;;5071990;28;20031;-72
2022/08/01 04:52:17;;;;;;;0.40;0.30;;;19.60;88.20;;;;;;5070886;28;20076;-71
2022/08/01 04:54:46;;;;;;;0.93;0.30;;;19.50;88.50;;;;;;5071795;28;20035;-71
2022/08/01 04:57:14;;;;;;;0.95;0.40;;;19.40;92.20;;;;;;5071923;28;20032;-70
2022/08/01 04:59:44;;;;;;;0.70;0.30;;;19.40;90.20;;;;;;5073194;28;20392;-69
2022/08/01 05:02:18;;;;;;;1.33;0.52;;;19.40;90.30;;;;;;5072165;28;20380;-70
2022/08/01 05:04:46;;;;;;;1.23;0.40;;;19.30;91.10;;;;;;5071811;28;20032;-71
2022/08/01 05:07:15;;;;;;;0.82;0.30;;;19.30;88.80;;;;;;5073232;28;20440;-71
2022/08/01 05:09:45;;;;;;;1.15;0.38;;;19.10;90.20;;;;;;5073046;28;20027;-71
2022/08/01 05:12:13;;;;;;;1.05;0.47;;;19.00;90.30;;;;;;5072869;28;20112;-70
2022/08/01 05:14:41;;;;;;;1.13;0.40;;;19.00;90.30;;;;;;5073109;28;20038;-70
2022/08/01 05:17:09;;;;;;;0.70;0.20;;;19.00;90.20;;;;;;5073071;28;20079;-70
2022/08/01 05:19:38;;;;;;;0.93;0.45;;;19.00;88.50;;;;;;5072981;28;20385;-69
2022/08/01 05:22:08;;;;;;;0.60;0.20;;;18.90;88.40;;;;;;5071557;28;20017;-69
2022/08/01 05:24:40;;;;;;;1.35;0.20;;;18.90;88.10;;;;;;5073162;28;20556;-69
2022/08/01 05:27:07;;;;;;;1.10;0.30;;;18.90;88.30;;;;;;5073335;28;20032;-69
2022/08/01 05:29:35;;;;;;;1.33;0.30;;;18.80;89.20;;;;;;5072879;28;20077;-69
2022/08/01 05:32:03;;;;;;;1.50;0.30;;;18.80;88.90;;;;;;5071615;28;20081;-70
2022/08/01 05:34:30;;;;;;;0.88;0.40;;;18.80;89.00;;;;;;5071631;28;20029;-71
2022/08/01 05:36:59;;;;;;;1.00;0.22;;;18.80;90.20;;;;;;5072895;28;20020;-70
2022/08/01 05:39:26;;;;;;;2.17;0.40;;;18.70;90.50;;;;;;5071501;28;20503;-71
2022/08/01 05:41:53;;;;;;;1.13;0.40;;;18.70;90.00;;;;;;5072795;28;20025;-70
2022/08/01 05:44:21;;;;;;;0.55;0.30;;;18.60;89.70;;;;;;5072770;28;20025;-69
2022/08/01 05:46:48;;;;;;;0.90;0.30;;;18.70;88.60;;;;;;5071427;28;20105;-71
2022/08/01 05:49:15;;;;;;;0.20;0.20;;;18.70;88.00;;;;;;5072921;28;20090;-70
2022/08/01 05:51:43;;;;;;;1.15;0.43;;;18.60;87.50;;;;;;5072646;28;20054;-70
2022/08/01 05:54:10;;;;;;;1.48;0.38;;;18.60;87.20;;;;;;5072432;28;20025;-71
2022/08/01 05:56:38;;;;;;;1.38;0.30;;;18.50;88.20;;;;;;5071482;28;20031;-71
2022/08/01 05:59:05;;;;;;;0.57;0.30;;;18.40;88.10;;;;;;5072640;28;20051;-71
2022/08/01 06:01:32;;;;;;;0.55;0.30;;;18.40;88.20;;;;;;5071221;28;20482;-71
2022/08/01 06:04:00;;;;;;;0.57;0.30;;;18.40;89.50;;;;;;5072536;28;20021;-70
2022/08/01 06:06:27;;;;;;;1.05;0.40;;;18.30;89.00;;;;;;5076342;28;20100;-72
2022/08/01 06:08:55;;;;;;;0.77;0.35;;;18.30;88.40;;;;;;5075243;28;20036;-70
2022/08/01 06:11:22;;;;;;;1.90;0.10;;;18.20;88.90;;;;;;5075300;28;20055;-71
2022/08/01 06:13:49;;;;;;;1.80;0.20;;;18.20;87.80;;;;;;5075000;28;20016;-71
2022/08/01 06:16:17;;;;;;;1.02;0.30;;;18.10;88.10;;;;;;5076222;28;20040;-71
2022/08/01 06:18:44;;;;;;;1.73;0.40;;;18.00;90.50;;;;;;5076213;28;20028;-71
2022/08/01 06:21:12;;;;;;;0.90;0.32;;;18.00;88.30;;;;;;5074543;28;20028;-71
2022/08/01 06:23:41;;;;;;;0.52;0.35;;;17.80;90.10;;;;;;5074196;28;20021;-71
2022/08/01 06:26:09;;;;;;;0.95;0.30;;;17.70;89.20;;;;;;5074256;28;20035;-70
2022/08/01 06:28:37;;;;;;;1.70;0.35;;;17.70;88.10;;;;;;5075585;28;20027;-70
2022/08/01 06:31:05;;;;;;;2.05;0.43;;;17.70;88.00;;;;;;5075952;28;20028;-70
2022/08/01 06:33:32;;;;;;;0.60;0.50;;;17.60;88.60;;;;;;5074168;28;20499;-71
2022/08/01 06:36:00;;;;;;;2.47;0.40;;;17.60;88.80;;;;;;5073995;28;20431;-71
2022/08/01 06:38:27;;;;;;;0.75;0.30;;;17.60;88.00;;;;;;5074204;28;20025;-70
2022/08/01 06:40:55;;;;;;;2.95;0.40;;;17.50;88.80;;;;;;5075933;28;20013;-70
2022/08/01 06:43:22;;;;;;;1.00;0.40;;;17.40;89.00;;;;;;5075705;28;20023;-70
2022/08/01 06:48:26;;;;;;;1.35;0.50;;;17.20;89.40;;;;;;5158610;23;20055;-71
2022/08/01 06:51:07;;;;;;;2.67;0.50;;;17.10;90.20;;;;;;4959942;28;20367;-72
2022/08/01 06:53:38;;;;;;;0.98;0.43;;;17.00;90.00;;;;;;4975494;28;20057;-72
2022/08/01 06:56:08;;;;;;;2.05;0.50;;;16.90;90.50;;;;;;4975586;28;20031;-71
2022/08/01 06:58:36;;;;;;;1.05;0.50;;;16.80;90.40;;;;;;4975861;28;20041;-69
2022/08/01 07:01:05;;;;;;;0.98;0.43;;;16.70;90.70;;;;;;4975639;28;20180;-71
2022/08/01 07:03:34;;;;;;;1.00;0.50;;;16.60;90.90;;;;;;4975459;28;20027;-70
2022/08/01 07:06:02;;;;;;;2.08;0.45;;;16.40;91.00;;;;;;4975313;28;20031;-71
2022/08/01 07:08:30;;;;;;;1.80;0.50;;;16.30;91.50;;;;;;4991905;28;20030;-73
2022/08/01 07:10:59;;;;;;;1.38;0.60;;;16.30;91.40;;;;;;4975540;28;20508;-71
2022/08/01 07:13:30;;;;;;;1.23;0.40;;;16.20;91.50;;;;;;4977116;28;20027;-71
2022/08/01 07:15:58;;;;;;;0.65;0.32;;;16.10;92.10;;;;;;4975880;28;20105;-72
2022/08/01 07:18:25;;;;;;;1.33;0.63;;;16.00;92.60;;;;;;4976742;28;20019;-72
2022/08/01 07:20:56;;;;;;;2.38;0.88;;;15.90;92.50;;;;;;4976653;28;20403;-75
2022/08/01 07:23:23;;;;;;;1.83;0.55;;;15.90;93.40;;;;;;4977397;28;20041;-75
2022/08/01 07:25:52;;;;;;;1.17;0.52;;;15.80;93.00;;;;;;4976951;28;20102;-75
2022/08/01 07:28:19;;;;;;;1.77;0.50;;;15.70;92.70;;;;;;4975698;28;20023;-76
2022/08/01 07:30:47;;;;;;;1.85;0.50;;;15.60;93.90;;;;;;4976761;28;20023;-74
2022/08/01 07:33:14;;;;;;;1.35;0.47;;;15.50;93.10;;;;;;4975640;28;20033;-74
2022/08/01 07:35:42;;;;;;;1.15;0.50;;;15.40;94.00;;;;;;4975413;28;20502;-75
2022/08/01 07:38:09;;;;;;;1.05;0.55;;;15.40;93.60;;;;;;4977055;28;20103;-75
2022/08/01 07:40:37;;;;;;;1.77;0.77;;;15.40;93.50;;;;;;4991841;28;20027;-74
2022/08/01 07:43:05;;;;;;;1.52;0.88;;;15.30;93.50;;;;;;4975806;28;20027;-73
2022/08/01 07:45:32;;;;;;;3.17;1.23;;;15.20;94.10;;;;;;4959914;28;20030;-74
2022/08/01 07:48:16;;;;;;;2.42;1.10;;;15.30;93.80;;;;;;4991210;28;20078;-74
2022/08/01 07:50:43;;;;;;;2.05;0.77;;;15.30;93.60;;;;;;4976321;28;20081;-74
2022/08/01 07:53:11;;;;;;;2.00;1.30;;;15.20;94.00;;;;;;4975089;28;20038;-74
2022/08/01 07:55:38;;;;;;;1.63;0.80;;;15.30;93.80;;;;;;4976786;28;20039;-73
2022/08/01 07:58:05;;;;;;;1.25;0.57;;;15.30;93.50;;;;;;4975234;28;20038;-74
2022/08/01 08:00:33;;;;;;;1.15;0.70;;;15.40;93.40;;;;;;4976305;28;20501;-73
2022/08/01 08:03:00;;;;;;;1.10;0.60;;;15.40;93.40;;;;;;4974851;28;20514;-74
2022/08/01 08:05:28;;;;;;;1.88;0.90;;;15.40;93.20;;;;;;4976451;28;20038;-74
2022/08/01 08:07:55;;;;;;;1.00;0.60;;;15.40;93.90;;;;;;4959126;28;20134;-75
2022/08/01 08:10:23;;;;;;;1.67;0.57;;;15.40;93.50;;;;;;4974843;28;20121;-76
2022/08/01 08:12:50;;;;;;;1.73;0.82;;;15.40;94.00;;;;;;4974554;28;20030;-75
2022/08/01 08:15:17;;;;;;;1.05;0.60;;;15.30;93.70;;;;;;4975789;28;20407;-75
2022/08/01 08:17:45;;;;;;;2.53;1.05;;;15.30;93.90;;;;;;4975527;28;20023;-74
2022/08/01 08:20:13;;;;;;;3.30;1.08;;;15.20;94.80;;;;;;4958378;28;20038;-75
2022/08/01 08:22:41;;;;;;;2.88;0.90;;;15.20;94.00;;;;;;4975573;28;20066;-76
2022/08/01 08:25:09;;;;;;;1.67;0.70;;;15.20;93.60;;;;;;4974355;28;20104;-75
2022/08/01 08:27:37;;;;;;;2.60;0.82;;;15.30;93.20;;;;;;4974254;28;20026;-75
2022/08/01 08:30:10;;;;;;;2.15;0.70;;;15.30;93.30;;;;;;4974162;28;20023;-76
2022/08/01 08:32:38;;;;;;;2.53;0.57;;;15.20;93.70;;;;;;4975724;28;20486;-75
2022/08/01 08:35:07;;;;;;;1.90;0.50;;;15.10;94.40;;;;;;4975799;28;20522;-73
2022/08/01 08:37:36;;;;;;;1.00;0.50;;;15.10;93.80;;;;;;4975673;28;20019;-73
2022/08/01 08:40:04;;;;;;;1.23;0.40;;;15.00;93.90;;;;;;4958611;28;20042;-73
2022/08/01 08:42:32;;;;;;;0.90;0.52;;;15.00;93.90;;;;;;4975644;28;20538;-73
2022/08/01 08:44:59;;;;;;;1.65;0.60;;;14.90;93.90;;;;;;4974199;28;20027;-72
2022/08/01 08:47:30;;;;;;;1.27;0.65;;;14.80;94.00;;;;;;4975879;28;20422;-73
2022/08/01 08:49:58;;;;;;;1.48;0.82;;;14.80;94.20;;;;;;4958151;28;20077;-73
2022/08/01 08:52:26;;;;;;;1.95;0.50;;;14.80;94.10;;;;;;4975719;28;20031;-74
2022/08/01 08:54:54;;;;;;;1.52;0.95;;;14.80;94.30;;;;;;4975203;28;20038;-74
2022/08/01 08:57:26;;;;;;;1.58;0.43;;;14.80;93.70;;;;;;4975620;28;20059;-74
2022/08/01 08:59:55;;;;;;;0.88;0.60;;;14.90;93.40;;;;;;4973907;28;20114;-73
2022/08/01 09:02:23;;;;;;;1.95;0.40;;;14.80;93.60;;;;;;4975550;28;20018;-73
2022/08/01 09:04:54;;;;;;;1.58;0.40;;;14.90;93.30;;;;;;4975046;28;20022;-74
2022/08/01 09:07:22;;;;;;;1.40;0.40;;;14.80;94.00;;;;;;4973693;28;20402;-73
2022/08/01 09:09:50;;;;;;;0.47;0.40;;;14.60;93.80;;;;;;4974026;28;20390;-75
2022/08/01 09:12:19;;;;;;;0.80;0.40;;;14.60;93.60;;;;;;4958218;28;20107;-72
2022/08/01 09:14:49;;;;;;;0.65;0.30;;;14.50;94.30;;;;;;4973516;28;20027;-74
2022/08/01 09:17:16;;;;;;;1.05;0.52;;;14.40;93.90;;;;;;4973833;28;20126;-75
2022/08/01 09:19:57;;;;;;;1.40;0.50;;;14.50;95.30;;;;;;4975680;28;20023;-74
2022/08/01 09:22:26;;;;;;;1.23;0.55;;;14.40;96.30;;;;;;4975525;28;20057;-74
2022/08/01 09:25:08;;;;;;;0.82;0.30;;;14.50;94.30;;;;;;4973889;28;20483;-74
2022/08/01 09:27:40;;;;;;;2.22;0.77;;;14.40;94.20;;;;;;4974059;28;20065;-74
2022/08/01 09:30:16;;;;;;;0.77;0.40;;;14.50;93.60;;;;;;4975505;28;20030;-72
2022/08/01 09:33:02;;;;;;;3.00;0.75;;;14.50;93.60;;;;;;4973542;28;20488;-73
2022/08/01 09:35:54;;;;;;;0.80;0.30;;;14.50;93.50;;;;;;4974987;28;20498;-73
2022/08/01 09:38:23;;;;;;;0.77;0.40;;;14.40;93.60;;;;;;4975302;28;20055;-72
2022/08/01 09:40:56;;;;;;;1.23;0.40;;;14.30;93.90;;;;;;4978786;28;20023;-73
2022/08/01 09:43:26;;;;;;;1.05;0.30;;;14.20;93.80;;;;;;4978824;28;20019;-72
2022/08/01 09:45:53;;;;;;;0.50;0.30;;;14.20;93.50;;;;;;4977342;28;20046;-73
2022/08/01 09:48:23;;;;;;;0.77;0.30;;;14.30;93.60;;;;;;4978283;28;20047;-73
2022/08/01 09:50:52;;;;;;;0.73;0.20;;;14.30;93.50;;;;;;4977215;28;20034;-72
2022/08/01 09:53:20;;;;;;;0.55;0.40;;;14.40;93.50;;;;;;4977379;28;20042;-73
2022/08/01 09:55:50;;;;;;;0.30;0.22;;;14.40;93.60;;;;;;4978523;28;20030;-72
2022/08/01 09:58:20;;;;;;;0.63;0.30;;;14.40;93.70;;;;;;4976905;28;20019;-72
2022/08/01 10:01:03;;;;;;;0.73;0.22;;;14.40;93.40;;;;;;4977187;28;20034;-72
2022/08/01 10:03:31;;;;;;;0.60;0.30;;;14.30;93.60;;;;;;4976890;28;20030;-72
2022/08/01 10:05:59;;;;;;;0.95;0.40;;;14.30;93.10;;;;;;4976811;28;20066;-72
2022/08/01 10:08:26;;;;;;;1.27;0.28;;;14.30;93.00;;;;;;4976890;28;20053;-71
2022/08/01 10:11:11;;;;;;;0.30;0.30;;;14.30;93.10;;;;;;4978001;28;20076;-72
2022/08/01 10:13:39;;;;;;;0.73;0.30;;;14.40;92.80;;;;;;4976822;28;20471;-72
2022/08/01 10:16:07;;;;;;;1.00;0.30;;;14.40;93.10;;;;;;4976868;28;20109;-73
2022/08/01 10:18:36;;;;;;;0.85;0.28;;;14.30;93.20;;;;;;4960846;28;20483;-72
2022/08/01 10:21:04;;;;;;;0.50;0.30;;;14.20;93.20;;;;;;4976501;28;20062;-72
2022/08/01 10:23:38;;;;;;;1.33;0.28;;;14.10;93.50;;;;;;4977966;28;20030;-72
2022/08/01 10:26:07;;;;;;;0.73;0.22;;;14.10;93.40;;;;;;4978577;28;20027;-74
2022/08/01 10:28:36;;;;;;;0.15;0.10;;;14.00;93.60;;;;;;4976613;28;20134;-72
2022/08/01 10:31:04;;;;;;;0.90;0.30;;;14.00;93.70;;;;;;4975822;28;20122;-72
2022/08/01 10:33:32;;;;;;;0.95;0.40;;;13.90;93.80;;;;;;4976458;28;20026;-73
2022/08/01 10:35:59;;;;;;;1.05;0.20;;;14.00;93.80;;;;;;4975992;28;20051;-72
2022/08/01 10:38:28;;;;;;;0.52;0.30;;;13.90;94.00;;;;;;4976652;28;20037;-73
2022/08/01 10:41:02;;;;;;;2.13;0.30;;;14.00;93.60;;;;;;4976392;28;20018;-72
2022/08/01 10:43:29;;;;;;;0.98;0.35;;;14.00;93.80;;;;;;4976293;28;20054;-71
2022/08/01 10:45:57;;;;;;;1.00;0.43;;;13.90;93.90;;;;;;4977274;28;20102;-72
2022/08/01 10:48:33;;;;;;;0.88;0.30;;;13.90;93.80;;;;;;4977247;28;20075;-71
2022/08/01 10:51:04;;;;;;;0.77;0.32;;;13.80;94.00;;;;;;4976221;28;20022;-71
2022/08/01 10:53:32;;;;;;;;;;;13.80;94.10;;;;;;4976489;28;20034;-71
2022/08/01 10:56:05;;;;;;;0.20;0.20;;;13.70;94.30;;;;;;4977223;28;19921;-71
2022/08/01 10:58:38;;;;;;;1.80;0.30;;;13.60;94.70;;;;;;4975887;28;20396;-71
2022/08/01 11:01:27;;;;;;;0.40;0.20;;;13.50;94.70;;;;;;4975804;28;20050;-72
2022/08/01 11:04:14;;;;;;;1.35;0.30;;;13.50;94.50;;;;;;4975969;28;20050;-72
2022/08/01 11:06:50;;;;;;;0.30;0.20;;;13.50;94.80;;;;;;4975500;28;20019;-71
2022/08/01 11:09:26;;;;;;;1.33;0.50;;;13.40;94.70;;;;;;4975569;28;20045;-72
2022/08/01 11:12:04;;;;;;;0.85;0.50;;;13.40;94.70;;;;;;4975638;28;20103;-71
2022/08/01 11:14:33;;;;;;;1.63;0.50;;;13.40;94.80;;;;;;4975430;28;20026;-72
2022/08/01 11:17:37;;;;;;;1.88;0.45;;;13.40;94.80;;;;;;4976649;28;20026;-71
2022/08/01 11:20:09;;;;;;;0.95;0.40;;;13.40;94.90;;;;;;4977107;28;20023;-71
2022/08/01 11:23:00;;;;;;;0.70;0.45;;;13.40;94.90;;;;;;4976878;28;20023;-73
2022/08/01 11:25:48;;;;;;;0.82;0.30;;;13.30;94.90;;;;;;4976695;28;20031;-71
2022/08/01 11:28:25;;;;;;;0.90;0.60;;;13.30;95.00;;;;;;4975488;28;20060;-72
2022/08/01 11:30:55;;;;;;;0.50;0.38;;;13.20;95.20;;;;;;4975238;28;20073;-72
2022/08/01 11:33:49;;;;;;;1.40;0.57;;;13.20;95.70;;;;;;4975127;28;20058;-71
2022/08/01 11:36:20;;;;;;;1.58;0.50;;;13.10;95.50;;;;;;4956744;28;20451;-73
2022/08/01 11:38:48;;;;;;;;;;;13.00;95.80;;;;;;4959998;28;20113;-73
2022/08/01 11:41:16;;;;;;;1.13;0.60;;;12.80;96.10;;;;;;4974684;28;19912;-72
2022/08/01 11:44:25;;;;;;;0.75;0.43;;;12.60;96.40;;;;;;4975059;28;20474;-73
2022/08/01 11:46:59;;;;;;;2.15;0.63;;;12.40;96.80;;;;;;4976826;28;20109;-72
2022/08/01 11:49:45;;;;;;;1.00;0.40;;;12.50;96.70;;;;;;4975114;28;20481;-72
2022/08/01 11:52:30;;;;;;;1.25;0.55;;;12.60;96.70;;;;;;4976408;28;20042;-72
2022/08/01 11:55:06;;;;;;;1.88;0.60;;;12.50;96.70;;;;;;4974977;28;20035;-72
2022/08/01 11:57:35;;;;;;;1.35;0.70;;;12.50;96.80;;;;;;4976545;28;20027;-73
2022/08/01 12:00:12;;;;;;;2.28;0.60;;;12.40;97.20;;;;;;4975058;28;20097;-72
2022/08/01 12:02:40;;;;;;;1.85;0.40;;;12.40;97.00;;;;;;4976320;28;20023;-72
2022/08/01 12:05:13;;;;;;;1.33;0.75;;;12.30;97.70;;;;;;4958922;28;20042;-73
2022/08/01 12:07:41;;;;;;;1.77;0.57;;;12.10;97.80;;;;;;4974818;28;20101;-74
2022/08/01 12:10:17;;;;;;;1.02;0.50;;;11.90;98.50;;;;;;4974250;28;20108;-72
2022/08/01 12:12:57;;;;;;;0.93;0.57;;;11.70;99.00;;;;;;4975983;28;20140;-74
2022/08/01 12:15:29;;;;;;;0.93;0.53;;;11.60;99.70;;;;;;4976601;28;20026;-73
2022/08/01 12:18:07;;;;;;;1.45;0.55;;;11.50;99.80;;;;;;4974961;28;20260;-73
2022/08/01 12:20:37;;;;;;;2.38;0.63;;;11.30;99.90;;;;;;4958980;28;20442;-74
2022/08/01 12:23:07;;;;;;;2.13;0.50;;;11.10;99.90;;;;;;4974851;28;20113;-73
2022/08/01 12:25:35;;;;;;;1.90;0.50;;;10.90;99.90;;;;;;4974767;28;20081;-74
2022/08/01 12:28:07;;;;;;;2.10;0.80;;;10.80;99.90;;;;;;4976645;28;20027;-72
2022/08/01 12:30:36;;;;;;;2.28;0.95;;;10.60;99.90;;;;;;4944302;28;20390;-73
2022/08/01 12:33:06;;;;;;;1.88;0.70;;;10.50;99.90;;;;;;4974640;28;20422;-73
2022/08/01 12:35:36;;;;;;;1.70;0.77;;;10.40;99.90;;;;;;4958658;28;20486;-73
2022/08/01 12:38:06;;;;;;;1.65;0.70;;;10.40;99.90;;;;;;4974339;28;20114;-71
2022/08/01 12:40:36;;;;;;;2.95;0.63;;;10.20;99.90;;;;;;4973949;28;20022;-73
2022/08/01 12:43:08;;;;;;;1.23;0.60;;;10.20;99.90;;;;;;4974266;28;20023;-71
2022/08/01 12:45:44;;;;;;;1.80;0.82;;;10.10;99.90;;;;;;4975755;28;20094;-71
2022/08/01 12:48:16;;;;;;;1.70;0.70;;;10.10;99.90;;;;;;4973695;28;20074;-71
2022/08/01 12:51:09;;;;;;;1.27;0.77;;;10.00;99.90;;;;;;4975431;28;20348;-72
2022/08/01 12:53:36;;;;;;;2.63;0.85;;;9.90;99.90;;;;;;4972792;28;20054;-72
2022/08/01 12:56:04;;;;;;;1.75;0.90;;;9.80;99.90;;;;;;4975312;28;20026;-72
2022/08/01 12:58:35;;;;;;;1.98;0.80;;;9.80;99.90;;;;;;4974082;28;20019;-71
2022/08/01 13:01:10;;;;;;;1.70;0.60;;;9.70;99.90;;;;;;4975968;28;20122;-71
2022/08/01 13:03:41;;;;;;;1.83;0.80;;;9.60;99.90;;;;;;4973948;28;20058;-71
2022/08/01 13:06:12;;;;;;;;;;;9.60;99.90;;;;;;4975418;28;20073;-71
2022/08/01 13:08:38;;;;;;;;;;;9.60;99.90;;;;;;4975458;28;19906;-71
2022/08/01 13:11:14;;;;;;;3.20;1.20;;;9.50;99.90;;;;;;4975295;28;19938;-71
2022/08/01 13:13:44;;;;;;;3.03;1.30;;;9.40;99.90;;;;;;4975071;28;20039;-71
2022/08/01 13:16:12;;;;;;;1.73;0.95;;;9.40;99.90;;;;;;4975183;28;20085;-70